Time;durP1;ratioP1;P1;durP2;ratioP2;P2;SDS_P1;SDS_P2;PMS_P1;PMS_P2;Temp;Humidity;BMP_temperature;BMP_pressure;BME280_temperature;BME280_humidity;BME280_pressure;Samples;Min_cycle;Max_cycle;Signal;HPM_P1;HPM_P2
2021/08/06 00:00:19;;;;;;;16.08;7.25;;;;;;;31.87;34.48;98339.78;5111106;28;20038;-36
2021/08/06 00:02:45;;;;;;;17.17;7.32;;;;;;;31.86;34.29;98340.94;5111123;28;20028;-36
2021/08/06 00:05:10;;;;;;;18.88;7.20;;;;;;;31.75;33.80;98329.06;5110987;28;20468;-36
2021/08/06 00:07:36;;;;;;;17.75;7.20;;;;;;;31.74;34.04;98324.75;5110761;28;20050;-36
2021/08/06 00:10:01;;;;;;;20.40;7.15;;;;;;;31.70;33.71;98329.41;5111060;28;20072;-36
2021/08/06 00:12:27;;;;;;;18.13;7.95;;;;;;;31.65;34.08;98327.81;5110767;28;20027;-36
2021/08/06 00:14:52;;;;;;;20.95;6.97;;;;;;;31.79;34.14;98335.38;5111143;28;20038;-36
2021/08/06 00:17:18;;;;;;;17.13;7.03;;;;;;;31.87;33.90;98323.28;5110622;28;20048;-36
2021/08/06 00:19:43;;;;;;;19.65;7.00;;;;;;;31.96;33.96;98334.72;5110998;28;20126;-36
2021/08/06 00:22:09;;;;;;;20.40;7.47;;;;;;;31.95;33.60;98341.44;5110959;28;20047;-36
2021/08/06 00:24:34;;;;;;;18.65;7.97;;;;;;;31.92;34.43;98352.41;5110831;28;20480;-36
2021/08/06 00:27:00;;;;;;;16.67;6.63;;;;;;;31.98;34.66;98333.59;5110822;28;20039;-36
2021/08/06 00:29:25;;;;;;;23.35;7.22;;;;;;;32.02;34.67;98332.44;5110932;28;20031;-36
2021/08/06 00:31:51;;;;;;;20.85;7.47;;;;;;;31.89;34.75;98337.44;5110580;28;20023;-36
2021/08/06 00:34:16;;;;;;;19.50;7.13;;;;;;;31.81;35.19;98335.00;5110833;28;20027;-36
2021/08/06 00:36:42;;;;;;;17.08;6.78;;;;;;;31.71;34.82;98325.50;5110738;28;20039;-36
2021/08/06 00:39:07;;;;;;;16.02;6.85;;;;;;;31.64;34.43;98326.22;5113048;28;20088;-36
2021/08/06 00:41:32;;;;;;;14.48;6.50;;;;;;;31.73;33.70;98337.69;5115046;28;20035;-36
2021/08/06 00:43:58;;;;;;;16.13;6.95;;;;;;;31.84;34.39;98332.28;5114915;28;20043;-36
2021/08/06 00:46:23;;;;;;;16.83;7.20;;;;;;;31.85;34.70;98327.56;5114935;28;20111;-36
2021/08/06 00:48:49;;;;;;;24.52;7.38;;;;;;;31.76;34.83;98325.16;5096495;28;20497;-36
2021/08/06 00:51:15;;;;;;;18.95;6.60;;;;;;;31.59;33.56;98317.53;5079680;28;20050;-36
2021/08/06 00:53:40;;;;;;;14.32;6.47;;;;;;;31.37;32.80;98323.56;5114519;28;20120;-36
2021/08/06 00:56:06;;;;;;;24.25;6.90;;;;;;;31.56;33.00;98330.06;5096231;28;20070;-36
2021/08/06 00:58:31;;;;;;;19.65;6.75;;;;;;;31.50;33.58;98332.38;5114902;28;20019;-36
2021/08/06 01:00:57;;;;;;;20.92;6.68;;;;;;;31.60;34.10;98341.09;5114692;28;20035;-36
2021/08/06 01:03:26;;;;;;;22.30;6.30;;;;;;;31.67;34.00;98336.47;5114444;28;20027;-36
2021/08/06 01:06:07;;;;;;;18.35;6.78;;;;;;;31.63;34.07;98332.09;5114216;28;20027;-36
2021/08/06 01:08:56;;;;;;;15.48;6.28;;;;;;;31.52;34.79;98343.00;5097843;28;20036;-36
2021/08/06 01:11:22;;;;;;;20.60;6.68;;;;;;;31.53;35.18;98352.84;5096525;28;20352;-36
2021/08/06 01:13:53;;;;;;;15.95;6.75;;;;;;;31.45;35.00;98356.63;5114222;28;20031;-35
2021/08/06 01:16:19;;;;;;;17.10;6.85;;;;;;;31.36;35.41;98356.94;5079203;28;20135;-36
2021/08/06 01:18:54;;;;;;;20.58;6.95;;;;;;;31.10;35.20;98357.81;5114297;28;20035;-36
2021/08/06 01:21:20;;;;;;;20.58;6.57;;;;;;;31.35;34.39;98347.88;5095935;28;20114;-36
2021/08/06 01:23:45;;;;;;;17.83;6.70;;;;;;;31.45;34.56;98348.38;5079321;28;20019;-36
2021/08/06 01:26:14;;;;;;;22.17;6.97;;;;;;;31.46;33.95;98339.78;5114309;28;20084;-36
2021/08/06 01:28:41;;;;;;;16.38;7.03;;;;;;;31.47;34.19;98340.56;5114263;28;20040;-36
2021/08/06 01:31:06;;;;;;;17.08;7.00;;;;;;;31.43;35.21;98331.47;5113981;28;20031;-36
2021/08/06 01:33:32;;;;;;;20.52;7.00;;;;;;;31.43;34.11;98340.50;5114011;28;20026;-36
2021/08/06 01:35:57;;;;;;;16.42;6.80;;;;;;;31.41;33.83;98334.59;5113838;28;20122;-36
2021/08/06 01:38:23;;;;;;;14.02;6.63;;;;;;;31.24;33.99;98343.44;5095877;28;20023;-36
2021/08/06 01:41:26;;;;;;;20.67;6.97;;;;;;;31.26;33.96;98343.84;5113977;28;20061;-36
2021/08/06 01:44:00;;;;;;;17.23;6.97;;;;;;;31.24;33.95;98344.22;5113934;28;20096;-36
2021/08/06 01:46:29;;;;;;;17.30;7.03;;;;;;;31.42;33.57;98340.91;5113600;28;20483;-36
2021/08/06 01:48:56;;;;;;;;;;;;;;;31.46;33.35;98342.53;5096423;28;20478;-36
2021/08/06 01:51:21;;;;;;;15.60;6.50;;;;;;;31.08;32.59;98330.72;5112814;28;19958;-36
2021/08/06 01:53:48;;;;;;;16.25;6.50;;;;;;;30.79;34.15;98337.81;5095656;28;20115;-36
2021/08/06 01:56:18;;;;;;;14.60;6.85;;;;;;;30.89;33.40;98328.13;5095326;28;20399;-36
2021/08/06 01:58:43;;;;;;;19.65;6.68;;;;;;;30.84;33.54;98333.91;5113256;28;20076;-36
2021/08/06 02:01:12;;;;;;;20.40;6.13;;;;;;;30.85;33.69;98341.00;5095416;28;20088;-36
2021/08/06 02:03:39;;;;;;;;;;;;;;;31.28;32.89;98339.59;5113974;28;20023;-36
2021/08/06 02:06:04;;;;;;;17.33;6.28;;;;;;;31.25;33.04;98339.56;5113509;28;19907;-36
2021/08/06 02:08:30;;;;;;;18.42;6.60;;;;;;;31.35;33.12;98353.38;5113271;28;20039;-36
2021/08/06 02:10:55;;;;;;;17.70;5.93;;;;;;;31.05;33.11;98339.69;5113551;28;20031;-36
2021/08/06 02:13:21;;;;;;;15.50;6.20;;;;;;;31.08;33.37;98338.97;5113199;28;20027;-36
2021/08/06 02:15:50;;;;;;;16.25;6.20;;;;;;;31.10;33.23;98335.84;5094833;28;20047;-36
2021/08/06 02:18:22;;;;;;;18.65;5.88;;;;;;;31.05;33.73;98334.19;5095446;28;20036;-36
2021/08/06 02:20:48;;;;;;;14.68;5.43;;;;;;;31.15;32.96;98338.25;5095891;28;20050;-36
2021/08/06 02:23:13;;;;;;;19.17;6.30;;;;;;;31.12;32.51;98342.53;5095014;28;20062;-36
2021/08/06 02:25:39;;;;;;;19.52;6.90;;;;;;;31.25;32.96;98331.31;5094717;28;20031;-36
2021/08/06 02:28:04;;;;;;;14.50;5.78;;;;;;;31.18;33.03;98332.78;5112976;28;20035;-36
2021/08/06 02:30:30;;;;;;;24.40;6.25;;;;;;;31.36;32.99;98337.72;5094747;28;20023;-36
2021/08/06 02:32:56;;;;;;;17.70;6.05;;;;;;;31.27;32.11;98331.72;5077645;28;20046;-36
2021/08/06 02:35:21;;;;;;;14.00;5.95;;;;;;;30.79;33.40;98335.06;5094752;28;20026;-36
2021/08/06 02:37:49;;;;;;;16.15;5.82;;;;;;;30.79;31.84;98340.53;5112840;28;20115;-36
2021/08/06 02:40:14;;;;;;;15.15;5.45;;;;;;;30.98;29.08;98339.63;5112644;28;20172;-36
2021/08/06 02:42:40;;;;;;;15.27;5.38;;;;;;;31.24;28.59;98335.22;5112410;28;20528;-36
2021/08/06 02:45:06;;;;;;;14.48;5.43;;;;;;;31.38;29.25;98338.13;5112748;28;20372;-36
2021/08/06 02:47:31;;;;;;;15.32;5.43;;;;;;;31.15;29.37;98332.78;5094409;28;20039;-36
2021/08/06 02:49:57;;;;;;;18.60;5.50;;;;;;;30.77;29.94;98346.41;5112576;28;20020;-36
2021/08/06 02:52:22;;;;;;;15.43;5.15;;;;;;;30.75;30.66;98345.19;5112384;28;20023;-36
2021/08/06 02:54:48;;;;;;;16.50;5.70;;;;;;;30.73;30.77;98355.72;5112846;28;20031;-36
2021/08/06 02:57:13;;;;;;;17.42;5.50;;;;;;;31.08;30.54;98349.16;5112251;28;20489;-36
2021/08/06 02:59:39;;;;;;;16.52;5.72;;;;;;;31.26;30.18;98352.88;5112398;28;20031;-36
2021/08/06 03:02:04;;;;;;;22.15;6.25;;;;;;;31.30;30.47;98355.69;5112271;28;20024;-36
2021/08/06 03:04:29;;;;;;;16.23;5.53;;;;;;;31.40;30.65;98348.72;5112284;28;20050;-36
2021/08/06 03:06:55;;;;;;;15.65;5.45;;;;;;;31.46;30.21;98363.72;5111831;28;20493;-36
2021/08/06 03:09:20;;;;;;;25.52;11.07;;;;;;;31.47;29.59;98359.81;5112239;28;20118;-36
2021/08/06 03:11:46;;;;;;;22.25;9.38;;;;;;;31.42;29.86;98371.13;5093659;28;20424;-36
2021/08/06 03:14:11;;;;;;;14.88;6.28;;;;;;;31.55;29.44;98373.28;5093803;28;20106;-37
2021/08/06 03:16:37;;;;;;;23.42;14.38;;;;;;;31.43;29.09;98364.47;5111941;28;20182;-36
2021/08/06 03:19:02;;;;;;;20.63;7.00;;;;;;;31.23;30.00;98361.13;5111893;28;20038;-36
2021/08/06 03:21:28;;;;;;;16.98;6.10;;;;;;;31.06;30.85;98367.97;5111958;28;20027;-36
2021/08/06 03:23:53;;;;;;;18.20;5.55;;;;;;;31.27;29.96;98362.72;5112028;28;20035;-36
2021/08/06 03:26:19;;;;;;;14.82;5.38;;;;;;;31.29;29.57;98360.38;5111943;28;20027;-36
2021/08/06 03:28:45;;;;;;;21.27;6.20;;;;;;;31.00;30.85;98353.78;5111832;28;20382;-36
2021/08/06 03:31:10;;;;;;;17.73;5.90;;;;;;;30.92;31.15;98350.16;5111508;28;20479;-36
2021/08/06 03:33:36;;;;;;;21.38;6.07;;;;;;;31.09;30.22;98340.56;5111944;28;20134;-36
2021/08/06 03:36:01;;;;;;;19.15;6.47;;;;;;;31.05;30.49;98338.91;5093491;28;20023;-36
2021/08/06 03:38:27;;;;;;;40.13;23.13;;;;;;;30.93;30.71;98337.22;5111906;28;20015;-37
2021/08/06 03:40:53;;;;;;;40.33;18.83;;;;;;;30.83;30.41;98346.09;5111677;28;20407;-35
2021/08/06 03:43:18;;;;;;;19.08;9.02;;;;;;;30.84;30.42;98345.69;5111462;28;20399;-37
2021/08/06 03:45:44;;;;;;;18.58;7.78;;;;;;;30.74;30.92;98338.91;5111776;28;20031;-37
2021/08/06 03:48:10;;;;;;;47.25;32.33;;;;;;;30.94;30.55;98333.31;5111546;28;20024;-37
2021/08/06 03:50:35;;;;;;;28.70;15.38;;;;;;;30.82;30.99;98337.03;5111684;28;20023;-37
2021/08/06 03:53:01;;;;;;;19.08;6.63;;;;;;;30.95;30.99;98332.13;5111341;28;20059;-37
2021/08/06 03:55:26;;;;;;;20.05;7.00;;;;;;;31.05;30.69;98333.41;5111110;28;20027;-37
2021/08/06 03:57:55;;;;;;;15.82;6.20;;;;;;;31.36;29.86;98333.00;5111008;28;20487;-37
2021/08/06 04:00:22;;;;;;;20.15;6.20;;;;;;;31.23;30.62;98325.41;5111235;28;20161;-37
2021/08/06 04:02:48;;;;;;;16.45;5.63;;;;;;;30.67;31.26;98324.28;5111090;28;20125;-37
2021/08/06 04:05:14;;;;;;;22.90;6.65;;;;;;;30.18;32.15;98329.47;5092818;28;20498;-37
2021/08/06 04:07:43;;;;;;;16.10;5.85;;;;;;;30.08;32.26;98334.78;5111181;28;20019;-37
2021/08/06 04:10:09;;;;;;;;;;;;;;;30.24;32.04;98335.44;5093129;28;20118;-37
2021/08/06 04:12:35;;;;;;;17.77;6.35;;;;;;;30.36;32.31;98326.22;5110713;28;20343;-37
2021/08/06 04:15:00;;;;;;;19.33;6.40;;;;;;;30.57;32.48;98325.72;5111023;28;20061;-38
2021/08/06 04:17:26;;;;;;;19.60;6.65;;;;;;;30.70;32.21;98329.03;5110733;28;20509;-38
2021/08/06 04:19:51;;;;;;;19.70;7.00;;;;;;;30.94;32.40;98327.81;5111018;28;20084;-36
2021/08/06 04:22:17;;;;;;;17.52;6.70;;;;;;;30.87;32.83;98328.47;5110843;28;20491;-35
2021/08/06 04:24:42;;;;;;;23.88;7.22;;;;;;;30.80;33.02;98329.16;5110512;28;20031;-36
2021/08/06 04:27:07;;;;;;;19.42;7.25;;;;;;;30.69;33.78;98332.94;5110945;28;20027;-36
2021/08/06 04:29:33;;;;;;;20.30;7.10;;;;;;;30.79;33.27;98333.09;5110656;28;20502;-36
2021/08/06 04:31:58;;;;;;;23.52;7.25;;;;;;;30.62;33.49;98319.94;5110810;28;20027;-36
2021/08/06 04:34:24;;;;;;;22.40;7.93;;;;;;;30.67;33.47;98336.06;5092238;28;20024;-36
2021/08/06 04:36:52;;;;;;;23.08;8.35;;;;;;;30.79;33.31;98332.31;5110659;28;20108;-36
2021/08/06 04:39:18;;;;;;;22.15;7.53;;;;;;;30.57;33.44;98336.72;5110566;28;20019;-36
2021/08/06 04:41:43;;;;;;;23.08;8.40;;;;;;;30.71;33.16;98333.34;5110680;28;20412;-37
2021/08/06 04:44:09;;;;;;;21.75;7.63;;;;;;;30.73;32.98;98325.53;5110878;28;20035;-37
2021/08/06 04:46:34;;;;;;;22.42;7.90;;;;;;;30.96;32.70;98337.25;5110802;28;20107;-37
2021/08/06 04:49:00;;;;;;;19.70;7.93;;;;;;;31.26;31.96;98333.66;5110468;28;20032;-36
2021/08/06 04:51:25;;;;;;;17.08;7.57;;;;;;;31.55;31.20;98342.25;5092193;28;20320;-37
2021/08/06 04:53:51;;;;;;;31.90;15.63;;;;;;;31.82;30.98;98340.13;5110402;28;20032;-37
2021/08/06 04:56:16;;;;;;;23.83;9.02;;;;;;;32.34;30.41;98340.94;5110085;28;20027;-37
2021/08/06 04:58:42;;;;;;;19.73;7.93;;;;;;;32.89;29.80;98342.06;5092048;28;20438;-37
2021/08/06 05:01:07;;;;;;;21.63;7.90;;;;;;;33.22;29.71;98335.50;5110520;28;20123;-37
2021/08/06 05:03:33;;;;;;;23.83;8.25;;;;;;;33.56;29.13;98337.94;5110380;28;20031;-37
2021/08/06 05:05:58;;;;;;;17.75;7.72;;;;;;;33.91;28.64;98353.00;5110323;28;20019;-37
2021/08/06 05:08:24;;;;;;;23.20;8.88;;;;;;;34.22;28.38;98356.94;5110165;28;20032;-37
2021/08/06 05:10:49;;;;;;;24.77;8.00;;;;;;;34.31;28.11;98352.97;5110195;28;20031;-37
2021/08/06 05:13:15;;;;;;;18.33;8.02;;;;;;;34.71;28.15;98351.75;5110209;28;20023;-37
2021/08/06 05:15:40;;;;;;;27.20;8.00;;;;;;;34.96;27.33;98359.94;5110135;28;20459;-37
2021/08/06 05:18:06;;;;;;;20.30;7.95;;;;;;;35.45;27.02;98354.56;5110357;28;20411;-37
2021/08/06 05:20:32;;;;;;;16.10;7.63;;;;;;;35.69;26.95;98363.94;5109880;28;20040;-36
2021/08/06 05:22:58;;;;;;;20.55;7.95;;;;;;;35.92;26.14;98373.66;5110051;28;20028;-37
2021/08/06 05:25:23;;;;;;;22.98;8.38;;;;;;;35.92;25.94;98373.66;5111456;28;20088;-37
2021/08/06 05:27:49;;;;;;;19.33;8.45;;;;;;;36.04;26.08;98380.69;5113936;28;20028;-37
2021/08/06 05:30:14;;;;;;;24.48;8.43;;;;;;;35.71;26.66;98383.69;5114242;28;20044;-37
2021/08/06 05:32:40;;;;;;;15.25;7.35;;;;;;;35.61;26.34;98384.53;5113739;28;20130;-37
2021/08/06 05:35:05;;;;;;;18.02;7.50;;;;;;;35.72;26.22;98381.69;5113817;28;20467;-37
2021/08/06 05:37:31;;;;;;;20.80;7.65;;;;;;;35.86;25.92;98380.81;5113650;28;20154;-37
2021/08/06 05:39:56;;;;;;;21.85;7.30;;;;;;;35.91;25.89;98383.16;5113888;28;20363;-38
2021/08/06 05:42:22;;;;;;;16.73;6.95;;;;;;;35.95;26.27;98387.47;5113844;28;20459;-38
2021/08/06 05:44:47;;;;;;;25.35;7.45;;;;;;;35.92;25.96;98393.03;5113894;28;20019;-38
2021/08/06 05:47:13;;;;;;;18.10;6.95;;;;;;;35.73;26.20;98395.13;5113591;28;20035;-37
2021/08/06 05:49:38;;;;;;;20.63;7.57;;;;;;;35.36;26.52;98395.72;5113501;28;20411;-38
2021/08/06 05:52:04;;;;;;;18.80;6.57;;;;;;;35.02;27.31;98399.00;5113216;28;20056;-37
2021/08/06 05:54:30;;;;;;;18.45;7.28;;;;;;;34.09;28.12;98405.41;5095326;28;20031;-37
2021/08/06 05:56:55;;;;;;;15.98;6.25;;;;;;;34.12;28.15;98404.63;5113042;28;20471;-37
2021/08/06 05:59:21;;;;;;;24.02;11.80;;;;;;;34.12;28.44;98406.56;5113457;28;20447;-37
2021/08/06 06:01:46;;;;;;;17.05;6.43;;;;;;;33.87;28.64;98402.63;5113019;28;20084;-37
2021/08/06 06:04:12;;;;;;;15.10;6.45;;;;;;;33.22;29.57;98407.16;5113080;28;20469;-38
2021/08/06 06:06:37;;;;;;;16.98;5.50;;;;;;;33.79;28.83;98406.56;5112738;28;20520;-36
2021/08/06 06:09:02;;;;;;;23.52;6.32;;;;;;;34.19;28.13;98406.63;5112840;28;20488;-37
2021/08/06 06:11:28;;;;;;;18.00;6.40;;;;;;;34.71;27.82;98407.00;5094556;28;20046;-37
2021/08/06 06:13:56;;;;;;;16.95;6.30;;;;;;;34.84;27.74;98407.34;5112850;28;20028;-37
2021/08/06 06:16:21;;;;;;;24.50;6.50;;;;;;;35.17;27.11;98413.56;5094010;28;20054;-37
2021/08/06 06:18:47;;;;;;;50.65;7.55;;;;;;;34.96;27.47;98408.91;5113410;28;20028;-37
2021/08/06 06:21:12;;;;;;;24.73;7.38;;;;;;;34.93;28.10;98404.94;5112748;28;20020;-37
2021/08/06 06:23:38;;;;;;;17.80;5.50;;;;;;;34.89;27.83;98398.66;5112437;28;20144;-37
2021/08/06 06:26:05;;;;;;;20.17;6.07;;;;;;;34.43;28.53;98414.09;5112134;28;20437;-37
2021/08/06 06:28:31;;;;;;;18.83;6.38;;;;;;;34.63;27.94;98411.72;5112811;28;20081;-38
2021/08/06 06:30:57;;;;;;;23.67;6.18;;;;;;;34.24;28.63;98406.22;5112794;28;20020;-39
2021/08/06 06:33:22;;;;;;;16.40;5.80;;;;;;;34.03;28.90;98416.03;5112700;28;20023;-37
2021/08/06 06:35:48;;;;;;;19.98;6.10;;;;;;;34.19;29.04;98418.44;5112445;28;20027;-36
2021/08/06 06:38:13;;;;;;;27.65;7.18;;;;;;;34.63;28.17;98420.00;5112313;28;20400;-37
2021/08/06 06:40:38;;;;;;;19.98;6.90;;;;;;;34.50;28.77;98420.78;5112510;28;20019;-37
2021/08/06 06:43:04;;;;;;;21.25;6.50;;;;;;;33.97;29.44;98419.59;5112610;28;20125;-37
2021/08/06 06:45:29;;;;;;;24.52;6.40;;;;;;;34.48;28.86;98412.91;5112579;28;20027;-37
2021/08/06 06:47:55;;;;;;;26.00;6.70;;;;;;;33.74;29.86;98428.22;5112416;28;20027;-37
2021/08/06 06:50:25;;;;;;;24.60;6.70;;;;;;;33.75;29.94;98436.09;5112286;28;20084;-37
2021/08/06 06:52:51;;;;;;;18.48;6.47;;;;;;;33.09;30.80;98437.00;5112571;28;20019;-37
2021/08/06 06:55:16;;;;;;;21.30;6.90;;;;;;;32.81;31.23;98443.13;5112123;28;20375;-37
2021/08/06 06:57:46;;;;;;;20.55;6.50;;;;;;;32.80;31.14;98440.75;5112163;28;20031;-36
2021/08/06 07:00:12;;;;;;;34.20;6.88;;;;;;;33.01;30.96;98437.34;5112163;28;20023;-37
2021/08/06 07:02:37;;;;;;;24.80;6.70;;;;;;;33.11;30.78;98436.66;5093556;28;20153;-36
2021/08/06 07:05:03;;;;;;;36.75;7.22;;;;;;;32.52;31.75;98433.88;5111355;28;20028;-36
2021/08/06 07:07:29;;;;;;;19.40;5.93;;;;;;;32.46;31.89;98436.19;5112069;28;20059;-38
2021/08/06 07:09:54;;;;;;;36.08;6.38;;;;;;;32.28;31.84;98436.03;5111950;28;20087;-37
2021/08/06 07:12:20;;;;;;;18.65;5.75;;;;;;;32.02;32.06;98433.44;5111688;28;20102;-37
2021/08/06 07:14:45;;;;;;;19.95;5.80;;;;;;;32.33;31.85;98429.41;5112062;28;20536;-37
2021/08/06 07:17:10;;;;;;;25.83;5.93;;;;;;;32.04;32.54;98422.84;5111851;28;20047;-37
2021/08/06 07:19:36;;;;;;;23.75;5.65;;;;;;;32.06;32.33;98429.56;5111840;28;20144;-37
2021/08/06 07:22:01;;;;;;;23.38;5.22;;;;;;;31.74;32.94;98437.47;5111730;28;20031;-36
2021/08/06 07:24:27;;;;;;;28.67;6.05;;;;;;;31.83;33.05;98439.91;5111841;28;20384;-37
2021/08/06 07:26:52;;;;;;;22.60;5.93;;;;;;;31.77;33.07;98444.97;5111678;28;20399;-37
2021/08/06 07:29:18;;;;;;;23.65;5.63;;;;;;;32.08;32.68;98451.19;5111788;28;20035;-37
2021/08/06 07:31:43;;;;;;;19.77;5.60;;;;;;;31.98;33.13;98446.34;5111519;28;20031;-37
2021/08/06 07:34:09;;;;;;;19.92;5.35;;;;;;;32.08;32.54;98456.69;5111728;28;20042;-36
2021/08/06 07:36:34;;;;;;;20.73;5.13;;;;;;;32.21;32.13;98441.47;5111469;28;20355;-37
2021/08/06 07:39:00;;;;;;;17.88;5.13;;;;;;;32.14;32.47;98444.19;5111823;28;20036;-37
2021/08/06 07:41:25;;;;;;;20.17;5.10;;;;;;;32.26;31.91;98451.34;5111355;28;20050;-36
2021/08/06 07:43:50;;;;;;;16.33;5.07;;;;;;;32.60;31.71;98441.03;5110764;28;20040;-38
2021/08/06 07:46:16;;;;;;;22.73;5.13;;;;;;;33.36;31.02;98445.03;5111360;28;20027;-37
2021/08/06 07:48:41;;;;;;;15.80;4.97;;;;;;;33.21;31.02;98440.63;5110671;28;20351;-36
2021/08/06 07:51:07;;;;;;;18.48;4.85;;;;;;;33.57;29.96;98443.53;5111356;28;20439;-37
2021/08/06 07:53:33;;;;;;;19.98;5.13;;;;;;;33.27;30.26;98445.38;5111029;28;20141;-37
2021/08/06 07:55:58;;;;;;;24.73;5.60;;;;;;;32.62;31.24;98460.72;5111113;28;20027;-37
2021/08/06 07:58:24;;;;;;;21.92;6.40;;;;;;;32.04;32.03;98453.91;5110761;28;20027;-36
2021/08/06 08:00:49;;;;;;;22.00;5.28;;;;;;;32.11;32.09;98451.22;5111205;28;20505;-37
2021/08/06 08:03:15;;;;;;;22.77;5.55;;;;;;;31.96;32.46;98455.75;5092691;28;20035;-37
2021/08/06 08:05:40;;;;;;;23.60;5.50;;;;;;;32.28;32.15;98455.31;5110792;28;20031;-37
2021/08/06 08:08:06;;;;;;;14.38;5.20;;;;;;;32.36;31.80;98455.38;5110651;28;20031;-36
2021/08/06 08:10:31;;;;;;;11.52;4.88;;;;;;;32.64;31.81;98454.84;5110998;28;20024;-37
2021/08/06 08:12:57;;;;;;;14.88;5.35;;;;;;;33.23;30.93;98458.34;5110719;28;20106;-36
2021/08/06 08:15:22;;;;;;;13.38;5.18;;;;;;;33.22;30.44;98458.72;5111316;28;20168;-36
2021/08/06 08:17:48;;;;;;;12.00;4.78;;;;;;;33.11;30.66;98459.47;5110423;28;20463;-37
2021/08/06 08:20:15;;;;;;;17.13;5.30;;;;;;;33.03;30.99;98463.31;5110807;28;20479;-37
2021/08/06 08:22:40;;;;;;;12.68;5.55;;;;;;;32.65;31.21;98468.22;5110829;28;20031;-37
2021/08/06 08:25:09;;;;;;;11.57;5.20;;;;;;;33.00;31.03;98475.13;5111103;28;20133;-37
2021/08/06 08:27:35;;;;;;;12.75;5.25;;;;;;;32.83;31.03;98459.28;5110501;28;20065;-37
2021/08/06 08:30:01;;;;;;;14.45;5.20;;;;;;;33.02;30.86;98467.25;5092675;28;20023;-37
2021/08/06 08:32:26;;;;;;;10.07;5.25;;;;;;;33.25;30.26;98457.97;5110828;28;20031;-37
2021/08/06 08:34:52;;;;;;;18.17;5.40;;;;;;;33.57;29.88;98455.34;5110692;28;20027;-37
2021/08/06 08:37:17;;;;;;;18.52;5.40;;;;;;;33.55;30.11;98454.13;5110465;28;20024;-37
2021/08/06 08:39:43;;;;;;;11.88;4.90;;;;;;;33.86;29.27;98464.50;5110520;28;20100;-37
2021/08/06 08:42:08;;;;;;;15.95;4.70;;;;;;;33.63;28.74;98464.84;5092528;28;20027;-37
2021/08/06 08:44:35;;;;;;;12.90;4.45;;;;;;;33.63;28.97;98461.25;5110535;28;20038;-37
2021/08/06 08:47:01;;;;;;;14.30;4.53;;;;;;;33.56;28.86;98455.72;5110572;28;20024;-37
2021/08/06 08:49:29;;;;;;;13.63;5.10;;;;;;;32.88;29.23;98465.22;5110804;28;20359;-37
2021/08/06 08:51:55;;;;;;;11.43;4.50;;;;;;;32.39;30.72;98465.63;5110762;28;20039;-45
2021/08/06 08:54:20;;;;;;;13.65;4.43;;;;;;;33.56;29.43;98456.50;5110527;28;20100;-37
2021/08/06 08:56:46;;;;;;;11.60;4.07;;;;;;;34.08;27.76;98459.00;5110210;28;20028;-38
2021/08/06 08:59:11;;;;;;;10.23;3.92;;;;;;;34.49;27.47;98472.47;5111510;28;20168;-37
2021/08/06 09:01:37;;;;;;;7.90;4.78;;;;;;;33.74;28.67;98462.13;5114674;28;20084;-37
2021/08/06 09:04:21;;;;;;;12.35;4.88;;;;;;;33.29;29.79;98467.81;5114226;28;20455;-37
2021/08/06 09:06:48;;;;;;;10.52;3.90;;;;;;;33.00;30.30;98466.88;5097626;28;20076;-37
2021/08/06 09:09:17;;;;;;;13.93;4.18;;;;;;;33.18;30.00;98457.94;5114447;28;20089;-37
2021/08/06 09:11:43;;;;;;;11.38;4.38;;;;;;;33.23;30.27;98468.59;5114324;28;20027;-37
2021/08/06 09:14:15;;;;;;;10.63;4.95;;;;;;;33.22;30.25;98470.53;5114217;28;20039;-37
2021/08/06 09:16:53;;;;;;;11.35;5.38;;;;;;;32.72;30.85;98475.72;5113856;28;20054;-37
2021/08/06 09:19:19;;;;;;;14.57;4.97;;;;;;;32.00;31.72;98469.56;5113970;28;20019;-37
2021/08/06 09:21:44;;;;;;;20.70;4.70;;;;;;;31.94;32.03;98469.09;5114096;28;20391;-37
2021/08/06 09:24:10;;;;;;;8.90;4.10;;;;;;;31.52;32.78;98453.72;5114053;28;20024;-37
2021/08/06 09:26:42;;;;;;;12.20;4.82;;;;;;;31.52;33.03;98463.94;5113671;28;20023;-37
2021/08/06 09:29:17;;;;;;;10.73;4.63;;;;;;;31.47;32.96;98456.00;5113929;28;20108;-37
2021/08/06 09:31:54;;;;;;;10.30;5.22;;;;;;;32.28;32.10;98451.78;5113398;28;20019;-37
2021/08/06 09:34:24;;;;;;;11.60;5.00;;;;;;;32.31;31.99;98451.81;5113815;28;20035;-39
2021/08/06 09:37:07;;;;;;;10.10;4.60;;;;;;;32.16;32.14;98455.59;5113395;28;20024;-37
2021/08/06 09:39:43;;;;;;;12.43;4.53;;;;;;;32.34;32.93;98451.03;5113321;28;20023;-37
2021/08/06 09:42:19;;;;;;;9.52;4.63;;;;;;;32.58;32.24;98456.34;5113384;28;20078;-37
2021/08/06 09:44:46;;;;;;;15.45;5.20;;;;;;;32.35;32.74;98457.34;5113647;28;20023;-37
2021/08/06 09:47:16;;;;;;;15.15;5.22;;;;;;;32.47;32.59;98445.25;5113430;28;20027;-37
2021/08/06 09:49:49;;;;;;;11.52;5.20;;;;;;;32.40;33.25;98447.94;5112986;28;20080;-37
2021/08/06 09:52:14;;;;;;;13.15;5.15;;;;;;;32.63;33.27;98434.75;5113509;28;20352;-37
2021/08/06 09:54:40;;;;;;;14.05;4.80;;;;;;;33.35;32.14;98421.38;5113435;28;20024;-37
2021/08/06 09:57:07;;;;;;;14.20;4.85;;;;;;;33.83;31.30;98414.84;5113099;28;20039;-37
2021/08/06 09:59:34;;;;;;;14.65;5.05;;;;;;;33.97;30.74;98414.09;5113341;28;20085;-37
2021/08/06 10:02:12;;;;;;;10.43;4.93;;;;;;;33.83;30.56;98412.88;5113328;28;20100;-37
2021/08/06 10:04:38;;;;;;;9.23;4.63;;;;;;;33.38;31.06;98400.53;5113441;28;20067;-37
2021/08/06 10:07:04;;;;;;;11.27;4.57;;;;;;;33.07;31.44;98399.97;5113513;28;20058;-37
2021/08/06 10:09:29;;;;;;;9.63;4.65;;;;;;;33.71;30.54;98401.44;5095058;28;20028;-37
2021/08/06 10:11:55;;;;;;;12.57;4.53;;;;;;;33.94;30.41;98410.13;5112411;28;20023;-37
2021/08/06 10:14:20;;;;;;;15.68;4.60;;;;;;;34.26;30.37;98412.13;5113205;28;20019;-37
2021/08/06 10:16:46;;;;;;;9.00;4.45;;;;;;;34.80;29.04;98406.56;5112685;28;20043;-38
2021/08/06 10:19:13;;;;;;;8.95;4.30;;;;;;;35.19;28.34;98414.75;5113050;28;20398;-38
2021/08/06 10:21:39;;;;;;;10.70;4.88;;;;;;;34.79;28.06;98377.38;5113015;28;20065;-38
2021/08/06 10:24:05;;;;;;;8.70;4.20;;;;;;;34.94;28.86;98420.34;5094692;28;20026;-37
2021/08/06 10:26:30;;;;;;;7.05;4.40;;;;;;;34.26;29.53;98415.69;5112519;28;20027;-38
2021/08/06 10:28:56;;;;;;;9.77;4.40;;;;;;;34.63;28.60;98402.63;5112587;28;20088;-38
2021/08/06 10:31:22;;;;;;;9.13;4.13;;;;;;;34.32;29.29;98412.53;5094019;28;20088;-36
2021/08/06 10:34:12;;;;;;;10.07;4.03;;;;;;;34.30;29.12;98421.22;5112681;28;20043;-37
2021/08/06 10:36:44;;;;;;;15.55;4.38;;;;;;;33.45;30.61;98412.38;5112470;28;20441;-38
2021/08/06 10:39:41;;;;;;;11.10;4.30;;;;;;;33.14;31.28;98408.31;5112619;28;20321;-37
2021/08/06 10:42:06;;;;;;;8.80;4.00;;;;;;;33.17;31.41;98399.28;5112449;28;20030;-37
2021/08/06 10:44:56;;;;;;;8.88;4.05;;;;;;;33.31;31.54;98393.03;5112625;28;20027;-37
2021/08/06 10:47:22;;;;;;;9.50;4.20;;;;;;;33.52;31.53;98395.03;5112308;28;20020;-37
2021/08/06 10:50:16;;;;;;;10.93;4.80;;;;;;;33.81;31.03;98401.44;5093995;28;20039;-37
2021/08/06 10:52:41;;;;;;;10.05;5.18;;;;;;;33.42;31.71;98391.09;5112357;28;20031;-36
2021/08/06 10:55:21;;;;;;;8.77;4.13;;;;;;;33.53;31.06;98385.63;5112410;28;20024;-37
2021/08/06 10:57:46;;;;;;;12.63;4.80;;;;;;;34.15;30.59;98386.47;5112370;28;20076;-37
2021/08/06 11:00:35;;;;;;;8.32;4.50;;;;;;;34.53;30.07;98384.09;5112362;28;20114;-37
2021/08/06 11:03:01;;;;;;;12.85;4.38;;;;;;;35.23;28.84;98384.34;5096528;28;20034;-37
2021/08/06 11:05:30;;;;;;;12.25;4.55;;;;;;;35.12;28.98;98384.34;5111917;28;20016;-38
2021/08/06 11:07:56;;;;;;;10.18;4.45;;;;;;;34.92;29.58;98386.00;5111998;28;20024;-38
2021/08/06 11:10:43;;;;;;;9.93;4.32;;;;;;;35.32;28.52;98378.34;5112000;28;20030;-37
2021/08/06 11:13:33;;;;;;;12.35;4.30;;;;;;;34.81;29.68;98375.78;5111766;28;20166;-36
2021/08/06 11:16:05;;;;;;;;;;;;;;;34.42;30.24;98376.66;5112428;28;20108;-37
2021/08/06 11:18:31;;;;;;;8.65;4.07;;;;;;;34.69;30.13;98384.50;5112105;28;20014;-37
2021/08/06 11:20:56;;;;;;;7.43;3.92;;;;;;;35.11;28.69;98374.50;5093216;28;20020;-37
2021/08/06 11:23:22;;;;;;;8.95;4.47;;;;;;;35.01;29.07;98378.88;5110496;28;20019;-38
2021/08/06 11:25:48;;;;;;;8.52;4.20;;;;;;;35.79;28.26;98371.38;5111404;28;20341;-37